Agat, GU

8:56 AM ChST on May 29, 2015 (GMT +1000)
Ordot Dump | | Change Station
CLOSE
Current Station
Personal Weather Station
Location: Chalan Pago Ordot,
Elevation: 282 ft
Nearby Weather Stations

Elev 282 ft 13.44 °N, 144.75 °E | Updated 4 seconds ago

Mostly Cloudy
Mostly Cloudy
81.3 °F
Feels Like 89 °F
N
4.9
Wind Variable Wind from SE
Gusts 8.0 mph

Today
High -- | Low -- °F
--% Chance of Precip.
Yesterday
High -- | Low -- °F
Precip. -- in
5:53 AM 6:44 PM
Waxing Gibbous, 79% visible
Pressure 29.92 in
Visibility 10.0 miles
Clouds Scattered Clouds 2300 ft
Mostly Cloudy 5500 ft
Heat Index 89 °F
Dew Point 78 °F
Humidity 90%
Rainfall 2.01 in
Snow Depth Not available.
UV 4 out of 12
Pollen Not available.
Air Quality Not available.
Flu Activity Regional
METAR PGUM 282254Z 16006KT 10SM SCT023 BKN055 28/25 A2994 RMK AO2 SLP132 T02780250 $

More Conditions Fewer Conditions

Pressure 29.92 in
Visibility 10.0 miles
Clouds Scattered Clouds 2300 ft
Mostly Cloudy 5500 ft
Heat Index 89 °F
Dew Point 78 °F
Humidity 90%
Rainfall 2.01 in
Snow Depth Not available.
UV 4 out of 12
Pollen Not available.
Air Quality Not available.
Flu Activity Regional
METAR PGUM 282254Z 16006KT 10SM SCT023 BKN055 28/25 A2994 RMK AO2 SLP132 T02780250 $

More Conditions Fewer Conditions

10-Day Weather Forecast

Almanac

Astronomy

May. 29, 2015 Rise Set
Actual Time
Civil Twilight
Nautical Twilight
Astronomical Twilight
Moon
Length of Visible Light
Length of Day
Tomorrow will be .
, % of the Moon is Illuminated

Today's Extremes

State Highs State Lows

Community

WunderPhotos

Upload Photos

1,825,083 photos uploaded!

WunderBlogs® & News

Nearby

Air Quality

  Air Quality AQ Index Pollutant
Not available.

Snow Depth

Station Depth Elevation

Earthquake Activity

City Distance Mag. Time & Date
Minimum magnitude displayed is 2.5.

Coastal Water Temperatures

Place Temperature

Stations

Nearby Weather Stations

Station Location Temp. Windchill Dew Point Humidity Wind Precip. Elev Updated Type